sensor_id;sensor_type;location;lat;lon;timestamp;P1;durP1;ratioP1;P2;durP2;ratioP2
41693;SDS011;27377;50.666;9.150;2022-07-10T00:02:15;3.20;;;1.00;;
41693;SDS011;27377;50.666;9.150;2022-07-10T00:05:00;5.00;;;1.13;;
41693;SDS011;27377;50.666;9.150;2022-07-10T00:07:44;3.55;;;1.10;;
41693;SDS011;27377;50.666;9.150;2022-07-10T00:10:30;3.05;;;1.10;;
41693;SDS011;27377;50.666;9.150;2022-07-10T00:13:14;3.63;;;1.20;;
41693;SDS011;27377;50.666;9.150;2022-07-10T00:15:58;3.75;;;1.15;;
41693;SDS011;27377;50.666;9.150;2022-07-10T00:18:43;3.95;;;1.10;;
41693;SDS011;27377;50.666;9.150;2022-07-10T00:21:27;4.65;;;1.02;;
41693;SDS011;27377;50.666;9.150;2022-07-10T00:24:11;3.60;;;1.00;;
41693;SDS011;27377;50.666;9.150;2022-07-10T00:26:55;5.63;;;1.10;;
41693;SDS011;27377;50.666;9.150;2022-07-10T00:29:39;5.95;;;1.85;;
41693;SDS011;27377;50.666;9.150;2022-07-10T00:32:23;4.28;;;1.13;;
41693;SDS011;27377;50.666;9.150;2022-07-10T00:35:07;3.63;;;0.93;;
41693;SDS011;27377;50.666;9.150;2022-07-10T00:37:52;3.30;;;1.00;;
41693;SDS011;27377;50.666;9.150;2022-07-10T00:40:37;2.53;;;0.90;;
41693;SDS011;27377;50.666;9.150;2022-07-10T00:43:21;4.18;;;1.17;;
41693;SDS011;27377;50.666;9.150;2022-07-10T00:46:06;4.13;;;1.00;;
41693;SDS011;27377;50.666;9.150;2022-07-10T00:48:51;6.40;;;1.33;;
41693;SDS011;27377;50.666;9.150;2022-07-10T00:51:36;4.55;;;1.13;;
41693;SDS011;27377;50.666;9.150;2022-07-10T00:54:21;3.55;;;1.05;;
41693;SDS011;27377;50.666;9.150;2022-07-10T00:57:06;3.88;;;1.02;;
41693;SDS011;27377;50.666;9.150;2022-07-10T00:59:51;3.80;;;1.10;;
41693;SDS011;27377;50.666;9.150;2022-07-10T01:02:36;3.80;;;1.00;;
41693;SDS011;27377;50.666;9.150;2022-07-10T01:05:21;4.18;;;1.20;;
41693;SDS011;27377;50.666;9.150;2022-07-10T01:08:05;3.25;;;1.10;;
41693;SDS011;27377;50.666;9.150;2022-07-10T01:10:49;3.80;;;1.00;;
41693;SDS011;27377;50.666;9.150;2022-07-10T01:13:34;3.85;;;1.00;;
41693;SDS011;27377;50.666;9.150;2022-07-10T01:16:19;3.40;;;1.13;;
41693;SDS011;27377;50.666;9.150;2022-07-10T01:19:05;3.65;;;1.10;;
41693;SDS011;27377;50.666;9.150;2022-07-10T01:21:50;4.28;;;1.15;;
41693;SDS011;27377;50.666;9.150;2022-07-10T01:24:35;2.97;;;1.05;;
41693;SDS011;27377;50.666;9.150;2022-07-10T01:27:19;2.83;;;1.10;;
41693;SDS011;27377;50.666;9.150;2022-07-10T01:30:03;4.28;;;1.20;;
41693;SDS011;27377;50.666;9.150;2022-07-10T01:32:48;4.05;;;1.13;;
41693;SDS011;27377;50.666;9.150;2022-07-10T01:35:32;2.85;;;1.10;;
41693;SDS011;27377;50.666;9.150;2022-07-10T01:38:16;3.75;;;1.17;;
41693;SDS011;27377;50.666;9.150;2022-07-10T01:41:00;3.17;;;1.20;;
41693;SDS011;27377;50.666;9.150;2022-07-10T01:43:45;2.90;;;1.10;;
41693;SDS011;27377;50.666;9.150;2022-07-10T01:46:29;2.92;;;1.02;;
41693;SDS011;27377;50.666;9.150;2022-07-10T01:49:14;3.20;;;1.10;;
41693;SDS011;27377;50.666;9.150;2022-07-10T01:51:59;4.45;;;1.10;;
41693;SDS011;27377;50.666;9.150;2022-07-10T01:54:43;6.15;;;1.25;;
41693;SDS011;27377;50.666;9.150;2022-07-10T01:57:27;3.00;;;1.02;;
41693;SDS011;27377;50.666;9.150;2022-07-10T02:00:12;3.27;;;1.30;;
41693;SDS011;27377;50.666;9.150;2022-07-10T02:02:56;2.85;;;1.10;;
41693;SDS011;27377;50.666;9.150;2022-07-10T02:05:59;5.13;;;1.30;;
41693;SDS011;27377;50.666;9.150;2022-07-10T02:08:43;3.50;;;1.20;;
41693;SDS011;27377;50.666;9.150;2022-07-10T02:11:28;3.58;;;1.20;;
41693;SDS011;27377;50.666;9.150;2022-07-10T02:14:12;2.63;;;1.07;;
41693;SDS011;27377;50.666;9.150;2022-07-10T02:16:57;6.57;;;1.27;;
41693;SDS011;27377;50.666;9.150;2022-07-10T02:19:41;2.95;;;1.20;;
41693;SDS011;27377;50.666;9.150;2022-07-10T02:22:25;3.70;;;1.27;;
41693;SDS011;27377;50.666;9.150;2022-07-10T02:25:11;3.67;;;1.13;;
41693;SDS011;27377;50.666;9.150;2022-07-10T02:27:54;4.50;;;1.10;;
41693;SDS011;27377;50.666;9.150;2022-07-10T02:30:38;2.88;;;1.10;;
41693;SDS011;27377;50.666;9.150;2022-07-10T02:33:22;3.42;;;1.20;;
41693;SDS011;27377;50.666;9.150;2022-07-10T02:36:07;5.55;;;1.25;;
41693;SDS011;27377;50.666;9.150;2022-07-10T02:38:50;2.85;;;1.05;;
41693;SDS011;27377;50.666;9.150;2022-07-10T02:41:34;4.47;;;1.27;;
41693;SDS011;27377;50.666;9.150;2022-07-10T02:44:22;2.85;;;1.20;;
41693;SDS011;27377;50.666;9.150;2022-07-10T02:47:06;3.42;;;1.30;;
41693;SDS011;27377;50.666;9.150;2022-07-10T02:49:50;4.10;;;1.10;;
41693;SDS011;27377;50.666;9.150;2022-07-10T02:52:33;4.28;;;1.20;;
41693;SDS011;27377;50.666;9.150;2022-07-10T02:55:18;3.03;;;1.10;;
41693;SDS011;27377;50.666;9.150;2022-07-10T02:58:02;6.03;;;1.75;;
41693;SDS011;27377;50.666;9.150;2022-07-10T03:00:47;3.70;;;1.40;;
41693;SDS011;27377;50.666;9.150;2022-07-10T03:03:31;3.38;;;1.30;;
41693;SDS011;27377;50.666;9.150;2022-07-10T03:06:15;3.15;;;1.02;;
41693;SDS011;27377;50.666;9.150;2022-07-10T03:08:59;7.22;;;1.30;;
41693;SDS011;27377;50.666;9.150;2022-07-10T03:11:43;3.25;;;1.13;;
41693;SDS011;27377;50.666;9.150;2022-07-10T03:14:27;4.97;;;1.30;;
41693;SDS011;27377;50.666;9.150;2022-07-10T03:17:11;4.57;;;1.30;;
41693;SDS011;27377;50.666;9.150;2022-07-10T03:19:55;3.65;;;1.00;;
41693;SDS011;27377;50.666;9.150;2022-07-10T03:22:39;5.20;;;1.10;;
41693;SDS011;27377;50.666;9.150;2022-07-10T03:25:23;4.22;;;1.23;;
41693;SDS011;27377;50.666;9.150;2022-07-10T03:28:07;5.15;;;1.20;;
41693;SDS011;27377;50.666;9.150;2022-07-10T03:30:52;3.53;;;1.20;;
41693;SDS011;27377;50.666;9.150;2022-07-10T03:33:36;2.90;;;1.08;;
41693;SDS011;27377;50.666;9.150;2022-07-10T03:36:20;4.10;;;1.30;;
41693;SDS011;27377;50.666;9.150;2022-07-10T03:39:04;3.93;;;1.10;;
41693;SDS011;27377;50.666;9.150;2022-07-10T03:41:48;4.28;;;1.15;;
41693;SDS011;27377;50.666;9.150;2022-07-10T03:44:32;2.78;;;1.20;;
41693;SDS011;27377;50.666;9.150;2022-07-10T03:47:16;4.53;;;1.20;;
41693;SDS011;27377;50.666;9.150;2022-07-10T03:50:00;3.95;;;1.30;;
41693;SDS011;27377;50.666;9.150;2022-07-10T03:52:45;3.38;;;1.10;;
41693;SDS011;27377;50.666;9.150;2022-07-10T03:55:30;2.65;;;1.05;;
41693;SDS011;27377;50.666;9.150;2022-07-10T03:58:14;3.70;;;1.20;;
41693;SDS011;27377;50.666;9.150;2022-07-10T04:00:58;3.97;;;1.20;;
41693;SDS011;27377;50.666;9.150;2022-07-10T04:03:42;3.85;;;1.08;;
41693;SDS011;27377;50.666;9.150;2022-07-10T04:06:28;3.00;;;1.10;;
41693;SDS011;27377;50.666;9.150;2022-07-10T04:09:12;4.35;;;1.15;;
41693;SDS011;27377;50.666;9.150;2022-07-10T04:11:57;3.30;;;1.10;;
41693;SDS011;27377;50.666;9.150;2022-07-10T04:14:41;4.43;;;1.20;;
41693;SDS011;27377;50.666;9.150;2022-07-10T04:17:25;4.82;;;1.23;;
41693;SDS011;27377;50.666;9.150;2022-07-10T04:20:09;4.20;;;0.95;;
41693;SDS011;27377;50.666;9.150;2022-07-10T04:22:53;4.60;;;1.30;;
41693;SDS011;27377;50.666;9.150;2022-07-10T04:25:38;4.28;;;1.20;;
41693;SDS011;27377;50.666;9.150;2022-07-10T04:28:22;4.10;;;1.13;;
41693;SDS011;27377;50.666;9.150;2022-07-10T04:31:06;5.72;;;1.20;;
41693;SDS011;27377;50.666;9.150;2022-07-10T04:33:50;3.90;;;1.20;;
41693;SDS011;27377;50.666;9.150;2022-07-10T04:36:34;3.95;;;1.05;;
41693;SDS011;27377;50.666;9.150;2022-07-10T04:39:18;4.80;;;1.20;;
41693;SDS011;27377;50.666;9.150;2022-07-10T04:42:02;6.28;;;1.35;;
41693;SDS011;27377;50.666;9.150;2022-07-10T04:44:46;3.55;;;1.02;;
41693;SDS011;27377;50.666;9.150;2022-07-10T04:47:30;3.72;;;1.30;;
41693;SDS011;27377;50.666;9.150;2022-07-10T04:50:14;4.63;;;1.30;;
41693;SDS011;27377;50.666;9.150;2022-07-10T04:52:58;5.22;;;1.17;;
41693;SDS011;27377;50.666;9.150;2022-07-10T04:55:42;5.20;;;1.20;;
41693;SDS011;27377;50.666;9.150;2022-07-10T04:58:26;4.47;;;1.27;;
41693;SDS011;27377;50.666;9.150;2022-07-10T05:01:11;4.47;;;1.00;;
41693;SDS011;27377;50.666;9.150;2022-07-10T05:03:55;5.60;;;0.98;;
41693;SDS011;27377;50.666;9.150;2022-07-10T05:06:39;7.07;;;1.20;;
41693;SDS011;27377;50.666;9.150;2022-07-10T05:09:24;6.15;;;1.20;;
41693;SDS011;27377;50.666;9.150;2022-07-10T05:12:08;4.28;;;1.05;;
41693;SDS011;27377;50.666;9.150;2022-07-10T05:14:52;4.65;;;1.20;;
41693;SDS011;27377;50.666;9.150;2022-07-10T05:17:36;3.70;;;0.90;;
41693;SDS011;27377;50.666;9.150;2022-07-10T05:20:21;5.97;;;1.20;;
41693;SDS011;27377;50.666;9.150;2022-07-10T05:23:05;4.90;;;1.00;;
41693;SDS011;27377;50.666;9.150;2022-07-10T05:25:49;4.88;;;1.38;;
41693;SDS011;27377;50.666;9.150;2022-07-10T05:28:34;4.63;;;1.00;;
41693;SDS011;27377;50.666;9.150;2022-07-10T05:31:18;4.33;;;1.10;;
41693;SDS011;27377;50.666;9.150;2022-07-10T05:34:02;6.05;;;1.33;;
41693;SDS011;27377;50.666;9.150;2022-07-10T05:36:47;4.75;;;1.10;;
41693;SDS011;27377;50.666;9.150;2022-07-10T05:39:31;5.45;;;1.00;;
41693;SDS011;27377;50.666;9.150;2022-07-10T05:42:15;6.05;;;1.27;;
41693;SDS011;27377;50.666;9.150;2022-07-10T05:44:59;4.90;;;1.05;;
41693;SDS011;27377;50.666;9.150;2022-07-10T05:47:43;5.38;;;1.00;;
41693;SDS011;27377;50.666;9.150;2022-07-10T05:50:31;5.80;;;1.20;;
41693;SDS011;27377;50.666;9.150;2022-07-10T05:53:15;5.25;;;1.00;;
41693;SDS011;27377;50.666;9.150;2022-07-10T05:56:02;4.53;;;1.17;;
41693;SDS011;27377;50.666;9.150;2022-07-10T05:58:47;4.67;;;1.07;;
41693;SDS011;27377;50.666;9.150;2022-07-10T06:01:33;4.75;;;1.05;;
41693;SDS011;27377;50.666;9.150;2022-07-10T06:04:17;6.53;;;1.30;;
41693;SDS011;27377;50.666;9.150;2022-07-10T06:07:01;8.85;;;1.10;;
41693;SDS011;27377;50.666;9.150;2022-07-10T06:09:46;4.38;;;0.90;;
41693;SDS011;27377;50.666;9.150;2022-07-10T06:12:30;5.15;;;1.05;;
41693;SDS011;27377;50.666;9.150;2022-07-10T06:15:14;4.65;;;0.93;;
41693;SDS011;27377;50.666;9.150;2022-07-10T06:17:59;5.55;;;1.00;;
41693;SDS011;27377;50.666;9.150;2022-07-10T06:20:43;4.73;;;1.03;;
41693;SDS011;27377;50.666;9.150;2022-07-10T06:23:27;7.60;;;1.13;;
41693;SDS011;27377;50.666;9.150;2022-07-10T06:26:11;6.60;;;1.10;;
41693;SDS011;27377;50.666;9.150;2022-07-10T06:28:55;5.43;;;1.13;;
41693;SDS011;27377;50.666;9.150;2022-07-10T06:31:39;6.60;;;1.13;;
41693;SDS011;27377;50.666;9.150;2022-07-10T06:34:24;5.97;;;1.10;;
41693;SDS011;27377;50.666;9.150;2022-07-10T06:37:08;8.70;;;1.47;;
41693;SDS011;27377;50.666;9.150;2022-07-10T06:39:52;5.60;;;1.30;;
41693;SDS011;27377;50.666;9.150;2022-07-10T06:42:37;7.28;;;1.15;;
41693;SDS011;27377;50.666;9.150;2022-07-10T06:45:21;6.35;;;1.20;;
41693;SDS011;27377;50.666;9.150;2022-07-10T06:48:05;5.97;;;1.20;;
41693;SDS011;27377;50.666;9.150;2022-07-10T06:50:49;4.07;;;1.10;;
41693;SDS011;27377;50.666;9.150;2022-07-10T06:53:33;4.47;;;1.03;;
41693;SDS011;27377;50.666;9.150;2022-07-10T06:56:17;6.28;;;1.10;;
41693;SDS011;27377;50.666;9.150;2022-07-10T06:59:02;5.07;;;1.10;;
41693;SDS011;27377;50.666;9.150;2022-07-10T07:01:46;3.55;;;0.88;;
41693;SDS011;27377;50.666;9.150;2022-07-10T07:04:30;4.47;;;0.85;;
41693;SDS011;27377;50.666;9.150;2022-07-10T07:07:14;5.68;;;1.00;;
41693;SDS011;27377;50.666;9.150;2022-07-10T07:09:59;5.50;;;1.27;;
41693;SDS011;27377;50.666;9.150;2022-07-10T07:12:43;3.05;;;0.93;;
41693;SDS011;27377;50.666;9.150;2022-07-10T07:15:27;5.20;;;1.10;;
41693;SDS011;27377;50.666;9.150;2022-07-10T07:18:10;6.35;;;1.10;;
41693;SDS011;27377;50.666;9.150;2022-07-10T07:20:56;8.35;;;1.10;;
41693;SDS011;27377;50.666;9.150;2022-07-10T07:23:59;5.78;;;1.00;;
41693;SDS011;27377;50.666;9.150;2022-07-10T07:26:43;5.00;;;1.00;;
41693;SDS011;27377;50.666;9.150;2022-07-10T07:29:27;5.30;;;1.17;;
41693;SDS011;27377;50.666;9.150;2022-07-10T07:32:11;6.22;;;1.27;;
41693;SDS011;27377;50.666;9.150;2022-07-10T07:34:56;4.45;;;1.02;;
41693;SDS011;27377;50.666;9.150;2022-07-10T07:40:25;4.30;;;1.00;;
41693;SDS011;27377;50.666;9.150;2022-07-10T07:43:09;4.93;;;1.10;;
41693;SDS011;27377;50.666;9.150;2022-07-10T07:45:53;5.35;;;1.20;;
41693;SDS011;27377;50.666;9.150;2022-07-10T07:48:37;5.85;;;1.00;;
41693;SDS011;27377;50.666;9.150;2022-07-10T07:51:22;6.82;;;1.20;;
41693;SDS011;27377;50.666;9.150;2022-07-10T07:54:05;4.18;;;0.93;;
41693;SDS011;27377;50.666;9.150;2022-07-10T07:56:50;6.23;;;1.10;;
41693;SDS011;27377;50.666;9.150;2022-07-10T07:59:34;4.82;;;1.17;;
41693;SDS011;27377;50.666;9.150;2022-07-10T08:02:18;4.65;;;1.10;;
41693;SDS011;27377;50.666;9.150;2022-07-10T08:05:02;5.38;;;1.20;;
41693;SDS011;27377;50.666;9.150;2022-07-10T08:07:58;6.07;;;1.10;;
41693;SDS011;27377;50.666;9.150;2022-07-10T08:10:45;5.32;;;1.20;;
41693;SDS011;27377;50.666;9.150;2022-07-10T08:13:29;6.10;;;1.00;;
41693;SDS011;27377;50.666;9.150;2022-07-10T08:16:13;5.45;;;1.08;;
41693;SDS011;27377;50.666;9.150;2022-07-10T08:18:57;6.20;;;1.00;;
41693;SDS011;27377;50.666;9.150;2022-07-10T08:21:41;5.37;;;1.10;;
41693;SDS011;27377;50.666;9.150;2022-07-10T08:24:25;5.70;;;1.10;;
41693;SDS011;27377;50.666;9.150;2022-07-10T08:27:09;4.65;;;1.10;;
41693;SDS011;27377;50.666;9.150;2022-07-10T08:29:53;5.85;;;1.00;;
41693;SDS011;27377;50.666;9.150;2022-07-10T08:32:38;6.32;;;1.10;;
41693;SDS011;27377;50.666;9.150;2022-07-10T08:35:23;6.05;;;1.23;;
41693;SDS011;27377;50.666;9.150;2022-07-10T08:38:08;4.93;;;1.10;;
41693;SDS011;27377;50.666;9.150;2022-07-10T08:40:53;5.07;;;1.00;;
41693;SDS011;27377;50.666;9.150;2022-07-10T08:43:40;5.68;;;1.00;;
41693;SDS011;27377;50.666;9.150;2022-07-10T08:46:25;7.00;;;1.03;;
41693;SDS011;27377;50.666;9.150;2022-07-10T08:49:11;3.47;;;0.90;;
41693;SDS011;27377;50.666;9.150;2022-07-10T08:51:58;7.13;;;1.13;;
41693;SDS011;27377;50.666;9.150;2022-07-10T08:54:45;4.80;;;0.98;;
41693;SDS011;27377;50.666;9.150;2022-07-10T08:57:29;5.60;;;1.10;;
41693;SDS011;27377;50.666;9.150;2022-07-10T09:00:15;2.90;;;0.70;;
41693;SDS011;27377;50.666;9.150;2022-07-10T09:03:00;6.63;;;1.00;;
41693;SDS011;27377;50.666;9.150;2022-07-10T09:05:44;3.88;;;0.70;;
41693;SDS011;27377;50.666;9.150;2022-07-10T09:08:30;4.13;;;0.80;;
41693;SDS011;27377;50.666;9.150;2022-07-10T09:11:18;3.88;;;0.90;;
41693;SDS011;27377;50.666;9.150;2022-07-10T09:14:03;4.15;;;0.80;;
41693;SDS011;27377;50.666;9.150;2022-07-10T09:16:51;4.25;;;0.82;;
41693;SDS011;27377;50.666;9.150;2022-07-10T09:19:35;4.25;;;0.90;;
41693;SDS011;27377;50.666;9.150;2022-07-10T09:22:19;4.20;;;0.73;;
41693;SDS011;27377;50.666;9.150;2022-07-10T09:25:11;5.40;;;0.98;;
41693;SDS011;27377;50.666;9.150;2022-07-10T09:27:56;5.53;;;1.00;;
41693;SDS011;27377;50.666;9.150;2022-07-10T09:30:43;2.85;;;0.80;;
41693;SDS011;27377;50.666;9.150;2022-07-10T09:33:28;6.22;;;1.00;;
41693;SDS011;27377;50.666;9.150;2022-07-10T09:36:13;4.10;;;0.90;;
41693;SDS011;27377;50.666;9.150;2022-07-10T09:39:00;3.97;;;0.93;;
41693;SDS011;27377;50.666;9.150;2022-07-10T09:41:45;2.80;;;0.70;;
41693;SDS011;27377;50.666;9.150;2022-07-10T09:44:29;4.43;;;1.00;;
41693;SDS011;27377;50.666;9.150;2022-07-10T09:47:21;4.30;;;0.90;;
41693;SDS011;27377;50.666;9.150;2022-07-10T09:50:19;4.57;;;0.90;;
41693;SDS011;27377;50.666;9.150;2022-07-10T09:53:09;4.20;;;0.90;;
41693;SDS011;27377;50.666;9.150;2022-07-10T09:55:53;3.53;;;0.73;;
41693;SDS011;27377;50.666;9.150;2022-07-10T09:58:40;3.35;;;0.90;;
41693;SDS011;27377;50.666;9.150;2022-07-10T10:01:24;3.60;;;0.90;;
41693;SDS011;27377;50.666;9.150;2022-07-10T10:04:11;3.75;;;0.70;;
41693;SDS011;27377;50.666;9.150;2022-07-10T10:06:56;3.55;;;0.80;;
41693;SDS011;27377;50.666;9.150;2022-07-10T10:09:53;4.22;;;0.90;;
41693;SDS011;27377;50.666;9.150;2022-07-10T10:12:47;3.23;;;0.80;;
41693;SDS011;27377;50.666;9.150;2022-07-10T10:15:34;4.00;;;0.95;;
41693;SDS011;27377;50.666;9.150;2022-07-10T10:18:20;3.90;;;0.68;;
41693;SDS011;27377;50.666;9.150;2022-07-10T10:21:05;3.53;;;0.80;;
41693;SDS011;27377;50.666;9.150;2022-07-10T10:23:52;4.22;;;0.80;;
41693;SDS011;27377;50.666;9.150;2022-07-10T10:26:38;3.00;;;0.70;;
41693;SDS011;27377;50.666;9.150;2022-07-10T10:29:24;3.85;;;0.75;;
41693;SDS011;27377;50.666;9.150;2022-07-10T10:32:08;4.95;;;0.95;;
41693;SDS011;27377;50.666;9.150;2022-07-10T10:34:53;4.57;;;0.82;;
41693;SDS011;27377;50.666;9.150;2022-07-10T10:37:40;4.20;;;0.80;;
41693;SDS011;27377;50.666;9.150;2022-07-10T10:40:31;3.47;;;0.80;;
41693;SDS011;27377;50.666;9.150;2022-07-10T10:43:18;4.88;;;0.82;;
41693;SDS011;27377;50.666;9.150;2022-07-10T10:46:23;5.65;;;0.80;;
41693;SDS011;27377;50.666;9.150;2022-07-10T10:49:08;3.95;;;0.82;;
41693;SDS011;27377;50.666;9.150;2022-07-10T10:52:02;3.67;;;0.80;;
41693;SDS011;27377;50.666;9.150;2022-07-10T10:57:41;3.92;;;1.08;;
41693;SDS011;27377;50.666;9.150;2022-07-10T11:00:32;5.13;;;0.90;;
41693;SDS011;27377;50.666;9.150;2022-07-10T11:03:22;3.45;;;0.80;;
41693;SDS011;27377;50.666;9.150;2022-07-10T11:06:07;5.22;;;0.90;;
41693;SDS011;27377;50.666;9.150;2022-07-10T11:08:58;5.10;;;1.02;;
41693;SDS011;27377;50.666;9.150;2022-07-10T11:11:43;4.05;;;0.73;;
41693;SDS011;27377;50.666;9.150;2022-07-10T11:14:44;4.03;;;0.90;;
41693;SDS011;27377;50.666;9.150;2022-07-10T11:17:31;2.80;;;0.80;;
41693;SDS011;27377;50.666;9.150;2022-07-10T11:20:16;3.35;;;0.82;;
41693;SDS011;27377;50.666;9.150;2022-07-10T11:26:24;4.38;;;1.00;;
41693;SDS011;27377;50.666;9.150;2022-07-10T11:29:35;4.38;;;0.82;;
41693;SDS011;27377;50.666;9.150;2022-07-10T11:32:21;4.68;;;1.00;;
41693;SDS011;27377;50.666;9.150;2022-07-10T11:35:06;4.47;;;1.13;;
41693;SDS011;27377;50.666;9.150;2022-07-10T11:37:55;3.60;;;0.80;;
41693;SDS011;27377;50.666;9.150;2022-07-10T11:40:39;4.10;;;0.93;;
41693;SDS011;27377;50.666;9.150;2022-07-10T11:43:23;3.50;;;0.70;;
41693;SDS011;27377;50.666;9.150;2022-07-10T11:46:10;2.70;;;0.68;;
41693;SDS011;27377;50.666;9.150;2022-07-10T11:48:55;4.35;;;0.95;;
41693;SDS011;27377;50.666;9.150;2022-07-10T11:51:40;4.20;;;0.90;;
41693;SDS011;27377;50.666;9.150;2022-07-10T11:54:26;3.55;;;0.70;;
41693;SDS011;27377;50.666;9.150;2022-07-10T11:57:10;5.50;;;1.20;;
41693;SDS011;27377;50.666;9.150;2022-07-10T11:59:54;4.80;;;1.08;;
41693;SDS011;27377;50.666;9.150;2022-07-10T12:02:40;3.75;;;0.90;;
41693;SDS011;27377;50.666;9.150;2022-07-10T12:05:31;5.03;;;0.90;;
41693;SDS011;27377;50.666;9.150;2022-07-10T12:08:20;3.80;;;0.82;;
41693;SDS011;27377;50.666;9.150;2022-07-10T12:11:11;4.43;;;0.90;;
41693;SDS011;27377;50.666;9.150;2022-07-10T12:17:01;3.72;;;0.70;;
41693;SDS011;27377;50.666;9.150;2022-07-10T12:19:54;4.97;;;1.10;;
41693;SDS011;27377;50.666;9.150;2022-07-10T12:22:39;4.10;;;1.10;;
41693;SDS011;27377;50.666;9.150;2022-07-10T12:25:23;4.07;;;1.00;;
41693;SDS011;27377;50.666;9.150;2022-07-10T12:28:08;3.08;;;0.80;;
41693;SDS011;27377;50.666;9.150;2022-07-10T12:30:53;3.75;;;0.80;;
41693;SDS011;27377;50.666;9.150;2022-07-10T12:33:37;4.40;;;0.83;;
41693;SDS011;27377;50.666;9.150;2022-07-10T12:36:21;3.60;;;0.80;;
41693;SDS011;27377;50.666;9.150;2022-07-10T12:39:06;4.05;;;0.93;;
41693;SDS011;27377;50.666;9.150;2022-07-10T12:42:00;4.40;;;0.90;;
41693;SDS011;27377;50.666;9.150;2022-07-10T12:44:47;3.67;;;0.70;;
41693;SDS011;27377;50.666;9.150;2022-07-10T12:47:42;3.85;;;0.98;;
41693;SDS011;27377;50.666;9.150;2022-07-10T12:50:29;3.90;;;0.90;;
41693;SDS011;27377;50.666;9.150;2022-07-10T12:53:13;3.83;;;0.90;;
41693;SDS011;27377;50.666;9.150;2022-07-10T12:55:58;5.13;;;1.00;;
41693;SDS011;27377;50.666;9.150;2022-07-10T12:58:45;3.72;;;0.82;;
41693;SDS011;27377;50.666;9.150;2022-07-10T13:01:39;4.53;;;0.90;;
41693;SDS011;27377;50.666;9.150;2022-07-10T13:04:24;5.45;;;1.05;;
41693;SDS011;27377;50.666;9.150;2022-07-10T13:07:13;5.60;;;1.02;;
41693;SDS011;27377;50.666;9.150;2022-07-10T13:09:59;6.30;;;1.00;;
41693;SDS011;27377;50.666;9.150;2022-07-10T13:12:50;5.07;;;0.93;;
41693;SDS011;27377;50.666;9.150;2022-07-10T13:15:34;4.45;;;0.98;;
41693;SDS011;27377;50.666;9.150;2022-07-10T13:18:29;5.87;;;0.97;;
41693;SDS011;27377;50.666;9.150;2022-07-10T13:21:14;4.45;;;0.93;;
41693;SDS011;27377;50.666;9.150;2022-07-10T13:23:58;4.68;;;1.00;;
41693;SDS011;27377;50.666;9.150;2022-07-10T13:26:42;3.83;;;0.87;;
41693;SDS011;27377;50.666;9.150;2022-07-10T13:29:26;5.00;;;1.00;;
41693;SDS011;27377;50.666;9.150;2022-07-10T13:32:10;3.47;;;0.80;;
41693;SDS011;27377;50.666;9.150;2022-07-10T13:34:54;3.10;;;0.80;;
41693;SDS011;27377;50.666;9.150;2022-07-10T13:37:38;3.88;;;0.85;;
41693;SDS011;27377;50.666;9.150;2022-07-10T13:40:22;4.30;;;1.07;;
41693;SDS011;27377;50.666;9.150;2022-07-10T13:43:06;4.35;;;0.80;;
41693;SDS011;27377;50.666;9.150;2022-07-10T13:45:50;5.60;;;1.08;;
41693;SDS011;27377;50.666;9.150;2022-07-10T13:48:35;3.35;;;0.80;;
41693;SDS011;27377;50.666;9.150;2022-07-10T13:51:19;4.00;;;0.82;;
41693;SDS011;27377;50.666;9.150;2022-07-10T13:54:03;3.78;;;0.70;;
41693;SDS011;27377;50.666;9.150;2022-07-10T13:56:47;4.07;;;0.90;;
41693;SDS011;27377;50.666;9.150;2022-07-10T13:59:31;4.35;;;0.90;;
41693;SDS011;27377;50.666;9.150;2022-07-10T14:02:15;4.32;;;1.00;;
41693;SDS011;27377;50.666;9.150;2022-07-10T14:04:59;3.67;;;0.90;;
41693;SDS011;27377;50.666;9.150;2022-07-10T14:07:44;4.47;;;1.02;;
41693;SDS011;27377;50.666;9.150;2022-07-10T14:10:28;3.58;;;0.80;;
41693;SDS011;27377;50.666;9.150;2022-07-10T14:13:13;2.77;;;0.77;;
41693;SDS011;27377;50.666;9.150;2022-07-10T14:15:58;5.22;;;1.05;;
41693;SDS011;27377;50.666;9.150;2022-07-10T14:18:42;3.80;;;0.95;;
41693;SDS011;27377;50.666;9.150;2022-07-10T14:21:27;4.37;;;1.03;;
41693;SDS011;27377;50.666;9.150;2022-07-10T14:24:12;3.97;;;0.80;;
41693;SDS011;27377;50.666;9.150;2022-07-10T14:26:56;4.30;;;0.80;;
41693;SDS011;27377;50.666;9.150;2022-07-10T14:29:40;4.07;;;0.90;;
41693;SDS011;27377;50.666;9.150;2022-07-10T14:32:24;2.53;;;0.82;;
41693;SDS011;27377;50.666;9.150;2022-07-10T14:35:08;3.55;;;0.90;;
41693;SDS011;27377;50.666;9.150;2022-07-10T14:37:52;2.80;;;0.80;;
41693;SDS011;27377;50.666;9.150;2022-07-10T14:40:36;2.90;;;0.75;;
41693;SDS011;27377;50.666;9.150;2022-07-10T14:43:20;3.50;;;0.68;;
41693;SDS011;27377;50.666;9.150;2022-07-10T14:46:05;3.40;;;0.70;;
41693;SDS011;27377;50.666;9.150;2022-07-10T14:48:49;4.07;;;1.00;;
41693;SDS011;27377;50.666;9.150;2022-07-10T14:51:34;4.75;;;0.77;;
41693;SDS011;27377;50.666;9.150;2022-07-10T14:54:19;3.58;;;0.93;;
41693;SDS011;27377;50.666;9.150;2022-07-10T14:57:03;3.95;;;0.90;;
41693;SDS011;27377;50.666;9.150;2022-07-10T14:59:47;3.57;;;0.97;;
41693;SDS011;27377;50.666;9.150;2022-07-10T15:02:31;3.63;;;0.90;;
41693;SDS011;27377;50.666;9.150;2022-07-10T15:05:15;3.60;;;0.90;;
41693;SDS011;27377;50.666;9.150;2022-07-10T15:08:00;2.85;;;0.73;;
41693;SDS011;27377;50.666;9.150;2022-07-10T15:10:45;2.95;;;0.70;;
41693;SDS011;27377;50.666;9.150;2022-07-10T15:13:29;2.55;;;0.60;;
41693;SDS011;27377;50.666;9.150;2022-07-10T15:16:14;5.83;;;0.70;;
41693;SDS011;27377;50.666;9.150;2022-07-10T15:18:58;2.45;;;0.60;;
41693;SDS011;27377;50.666;9.150;2022-07-10T15:21:42;3.50;;;0.73;;
41693;SDS011;27377;50.666;9.150;2022-07-10T15:24:26;3.67;;;0.70;;
41693;SDS011;27377;50.666;9.150;2022-07-10T15:27:10;2.97;;;0.70;;
41693;SDS011;27377;50.666;9.150;2022-07-10T15:29:54;2.00;;;0.70;;
41693;SDS011;27377;50.666;9.150;2022-07-10T15:32:38;4.10;;;0.70;;
41693;SDS011;27377;50.666;9.150;2022-07-10T15:35:22;1.63;;;0.47;;
41693;SDS011;27377;50.666;9.150;2022-07-10T15:38:07;3.30;;;0.65;;
41693;SDS011;27377;50.666;9.150;2022-07-10T15:40:51;3.45;;;0.65;;
41693;SDS011;27377;50.666;9.150;2022-07-10T15:43:35;3.40;;;0.65;;
41693;SDS011;27377;50.666;9.150;2022-07-10T15:46:19;2.50;;;0.60;;
41693;SDS011;27377;50.666;9.150;2022-07-10T15:49:03;3.40;;;0.70;;
41693;SDS011;27377;50.666;9.150;2022-07-10T15:51:48;2.17;;;0.65;;
41693;SDS011;27377;50.666;9.150;2022-07-10T15:54:33;1.88;;;0.47;;
41693;SDS011;27377;50.666;9.150;2022-07-10T15:57:18;2.28;;;0.50;;
41693;SDS011;27377;50.666;9.150;2022-07-10T16:00:02;2.53;;;0.60;;
41693;SDS011;27377;50.666;9.150;2022-07-10T16:02:48;2.70;;;0.57;;
41693;SDS011;27377;50.666;9.150;2022-07-10T16:05:32;2.00;;;0.50;;
41693;SDS011;27377;50.666;9.150;2022-07-10T16:08:16;3.30;;;0.70;;
41693;SDS011;27377;50.666;9.150;2022-07-10T16:11:04;2.63;;;0.70;;
41693;SDS011;27377;50.666;9.150;2022-07-10T16:13:49;2.05;;;0.50;;
41693;SDS011;27377;50.666;9.150;2022-07-10T16:16:34;1.38;;;0.40;;
41693;SDS011;27377;50.666;9.150;2022-07-10T16:19:19;2.22;;;0.50;;
41693;SDS011;27377;50.666;9.150;2022-07-10T16:22:03;1.70;;;0.45;;
41693;SDS011;27377;50.666;9.150;2022-07-10T16:24:47;2.08;;;0.40;;
41693;SDS011;27377;50.666;9.150;2022-07-10T16:27:50;1.10;;;0.32;;
41693;SDS011;27377;50.666;9.150;2022-07-10T16:30:34;1.33;;;0.40;;
41693;SDS011;27377;50.666;9.150;2022-07-10T16:33:18;9.23;;;0.93;;
41693;SDS011;27377;50.666;9.150;2022-07-10T16:36:02;2.67;;;0.43;;
41693;SDS011;27377;50.666;9.150;2022-07-10T16:38:47;5.45;;;0.40;;
41693;SDS011;27377;50.666;9.150;2022-07-10T16:41:32;1.15;;;0.47;;
41693;SDS011;27377;50.666;9.150;2022-07-10T16:44:17;2.95;;;0.57;;
41693;SDS011;27377;50.666;9.150;2022-07-10T16:47:01;1.25;;;0.40;;
41693;SDS011;27377;50.666;9.150;2022-07-10T16:49:45;0.73;;;0.20;;